createdAt,value
2019-05-11T00:02:19.312Z,15.77
2019-05-11T00:04:49.655Z,15.90
2019-05-11T00:07:19.920Z,16.70
2019-05-11T00:09:58.030Z,14.90
2019-05-11T00:12:22.452Z,17.00
2019-05-11T00:14:52.881Z,19.03
2019-05-11T00:17:23.090Z,19.33
2019-05-11T00:19:53.345Z,17.97
2019-05-11T00:22:23.733Z,19.03
2019-05-11T00:24:54.143Z,22.97
2019-05-11T00:27:24.408Z,19.80
2019-05-11T00:29:54.716Z,20.50
2019-05-11T00:32:25.159Z,20.03
2019-05-11T00:34:57.099Z,23.70
2019-05-11T00:37:28.310Z,28.47
2019-05-11T00:40:13.200Z,24.53
2019-05-11T00:42:30.631Z,27.63
2019-05-11T00:45:01.160Z,24.83
2019-05-11T00:47:32.691Z,24.93
2019-05-11T00:50:03.109Z,27.23
2019-05-11T00:52:33.457Z,24.23
2019-05-11T00:55:03.879Z,28.43
2019-05-11T00:57:34.342Z,26.40
2019-05-11T01:00:07.950Z,28.73
2019-05-11T01:02:38.419Z,29.37
2019-05-11T01:05:09.251Z,29.20
2019-05-11T01:07:39.589Z,30.73
2019-05-11T01:10:23.026Z,28.97
2019-05-11T01:12:42.770Z,27.67
2019-05-11T01:15:14.980Z,29.53
2019-05-11T01:17:45.291Z,29.80
2019-05-11T01:20:18.562Z,29.47
2019-05-11T01:22:47.581Z,32.00
2019-05-11T01:25:18.041Z,28.13
2019-05-11T01:27:48.313Z,31.77
2019-05-11T01:30:18.810Z,31.87
2019-05-11T01:32:49.131Z,29.63
2019-05-11T01:35:20.969Z,28.80
2019-05-11T01:37:51.242Z,34.17
2019-05-11T01:40:21.723Z,32.87
2019-05-11T01:42:52.243Z,35.67
2019-05-11T01:45:22.479Z,34.57
2019-05-11T01:47:52.804Z,24.83
2019-05-11T01:50:23.074Z,26.63
2019-05-11T01:52:53.504Z,28.87
2019-05-11T01:55:23.818Z,30.27
2019-05-11T01:57:54.170Z,25.07
2019-05-11T02:00:24.389Z,25.37
2019-05-11T02:02:54.797Z,28.53
2019-05-11T02:05:28.169Z,20.83
2019-05-11T02:08:00.522Z,23.07
2019-05-11T02:10:31.630Z,24.23
2019-05-11T02:13:03.540Z,23.37
2019-05-11T02:15:33.785Z,22.83
2019-05-11T02:18:04.126Z,24.53
2019-05-11T02:20:36.063Z,27.73
2019-05-11T02:23:06.500Z,30.20
2019-05-11T02:25:37.723Z,23.50
2019-05-11T02:28:08.162Z,25.13
2019-05-11T02:30:38.717Z,24.57
2019-05-11T02:33:10.117Z,24.57
2019-05-11T02:35:40.876Z,22.33
2019-05-11T02:38:11.239Z,26.87
2019-05-11T02:40:42.998Z,25.50
2019-05-11T02:43:15.013Z,26.27
2019-05-11T02:45:45.401Z,24.90
2019-05-11T02:48:15.843Z,27.43
2019-05-11T02:50:46.292Z,26.67
2019-05-11T02:53:18.404Z,25.90
2019-05-11T02:55:51.387Z,28.43
2019-05-11T02:58:21.666Z,23.40
2019-05-11T03:00:53.630Z,23.87
2019-05-11T03:03:23.864Z,21.97
2019-05-11T03:05:54.160Z,22.70
2019-05-11T03:08:24.824Z,22.27
2019-05-11T03:10:55.268Z,22.93
2019-05-11T03:13:25.744Z,24.60
2019-05-11T03:15:56.096Z,24.37
2019-05-11T03:18:26.318Z,24.13
2019-05-11T03:20:56.589Z,21.80
2019-05-11T03:23:26.976Z,23.10
2019-05-11T03:25:57.477Z,21.33
2019-05-11T03:28:27.684Z,22.27
2019-05-11T03:30:57.937Z,22.47
2019-05-11T03:33:28.268Z,21.57
2019-05-11T03:35:58.800Z,23.23
2019-05-11T03:38:29.056Z,20.97
2019-05-11T03:40:59.342Z,23.90
2019-05-11T03:43:29.626Z,26.40
2019-05-11T03:46:00.666Z,23.53
2019-05-11T03:48:30.888Z,24.43
2019-05-11T03:51:01.122Z,22.87
2019-05-11T03:53:32.475Z,26.97
2019-05-11T03:56:02.792Z,25.60
2019-05-11T03:58:34.084Z,24.63
2019-05-11T04:01:04.391Z,24.70
2019-05-11T04:03:34.603Z,24.93
2019-05-11T04:06:05.839Z,23.77
2019-05-11T04:08:36.103Z,25.50
2019-05-11T04:11:06.526Z,25.33
2019-05-11T04:13:36.787Z,24.10
2019-05-11T04:16:07.029Z,26.87
2019-05-11T04:18:37.294Z,25.47
2019-05-11T04:21:07.503Z,26.67
2019-05-11T04:23:38.917Z,22.63
2019-05-11T04:26:09.190Z,22.13
2019-05-11T04:28:39.494Z,22.43
2019-05-11T04:31:09.930Z,22.43
2019-05-11T04:33:40.142Z,21.97
2019-05-11T04:36:14.726Z,22.40
2019-05-11T04:38:45.057Z,20.93
2019-05-11T04:41:16.928Z,22.73
2019-05-11T04:43:47.215Z,19.37
2019-05-11T04:46:17.444Z,18.07
2019-05-11T04:48:47.897Z,19.53
2019-05-11T04:51:18.251Z,19.37
2019-05-11T04:53:48.594Z,19.03
2019-05-11T04:56:18.805Z,19.53
2019-05-11T04:58:49.071Z,20.13
2019-05-11T05:01:19.300Z,21.83
2019-05-11T05:03:54.213Z,20.33
2019-05-11T05:06:24.465Z,20.23
2019-05-11T05:08:58.229Z,21.87
2019-05-11T05:11:30.708Z,20.80
2019-05-11T05:14:01.831Z,20.23
2019-05-11T05:16:32.209Z,21.43
2019-05-11T05:19:02.476Z,20.40
2019-05-11T05:21:32.772Z,20.70
2019-05-11T05:24:03.300Z,22.00
2019-05-11T05:26:33.677Z,23.23
2019-05-11T05:29:03.957Z,20.40
2019-05-11T05:31:34.167Z,24.13
2019-05-11T05:34:04.440Z,21.40
2019-05-11T05:36:34.765Z,20.90
2019-05-11T05:39:09.164Z,23.30
2019-05-11T05:41:39.847Z,22.77
2019-05-11T05:44:10.194Z,25.00
2019-05-11T05:46:40.427Z,21.90
2019-05-11T05:49:10.658Z,23.03
2019-05-11T05:51:41.066Z,26.00
2019-05-11T05:54:11.497Z,21.23
2019-05-11T05:56:42.755Z,21.53
2019-05-11T05:59:13.120Z,23.30
2019-05-11T06:01:43.367Z,26.07
2019-05-11T06:04:13.656Z,20.67
2019-05-11T06:06:43.898Z,21.93
2019-05-11T06:09:14.117Z,20.53
2019-05-11T06:11:44.407Z,21.57
2019-05-11T06:14:14.666Z,20.63
2019-05-11T06:16:44.915Z,21.63
2019-05-11T06:19:15.152Z,20.17
2019-05-11T06:21:45.408Z,20.90
2019-05-11T06:24:15.665Z,23.80
2019-05-11T06:26:46.096Z,21.57
2019-05-11T06:29:16.390Z,20.73
2019-05-11T06:31:46.714Z,21.60
2019-05-11T06:34:16.977Z,20.57
2019-05-11T06:36:47.344Z,17.07
2019-05-11T06:39:17.594Z,17.10
2019-05-11T06:41:47.871Z,21.10
2019-05-11T06:44:18.170Z,17.60
2019-05-11T06:46:48.572Z,17.13
2019-05-11T06:49:18.826Z,22.13
2019-05-11T06:51:49.146Z,17.40
2019-05-11T06:54:19.441Z,17.20
2019-05-11T06:56:50.693Z,18.73
2019-05-11T06:59:20.956Z,16.83
2019-05-11T07:01:51.267Z,17.03
2019-05-11T07:04:21.633Z,16.00
2019-05-11T07:06:52.183Z,16.47
2019-05-11T07:09:25.169Z,17.17
2019-05-11T07:11:55.480Z,17.40
2019-05-11T07:14:25.783Z,15.07
2019-05-11T07:16:56.187Z,14.27
2019-05-11T07:19:26.596Z,16.40
2019-05-11T07:21:56.898Z,17.83
2019-05-11T07:24:27.203Z,15.47
2019-05-11T07:26:57.534Z,18.57
2019-05-11T07:29:29.417Z,15.77
2019-05-11T07:32:06.250Z,16.33
2019-05-11T07:34:31.768Z,13.67
2019-05-11T07:37:03.257Z,15.93
2019-05-11T07:39:33.480Z,13.30
2019-05-11T07:42:03.715Z,15.07
2019-05-11T07:44:38.562Z,15.23
2019-05-11T07:47:07.928Z,15.10
2019-05-11T07:49:38.365Z,16.47
2019-05-11T07:52:08.715Z,17.37
2019-05-11T07:54:54.789Z,15.87
2019-05-11T07:57:38.985Z,15.17
2019-05-11T08:00:09.338Z,16.03
2019-05-11T08:02:39.769Z,15.33
2019-05-11T08:05:10.291Z,11.77
2019-05-11T08:07:40.958Z,11.37
2019-05-11T08:10:11.363Z,12.03
2019-05-11T08:12:41.725Z,11.47
2019-05-11T08:15:13.791Z,11.30
2019-05-11T08:17:44.687Z,11.57
2019-05-11T08:20:15.087Z,13.07
2019-05-11T08:22:48.040Z,11.43
2019-05-11T08:25:18.260Z,10.73
2019-05-11T08:27:48.866Z,12.47
2019-05-11T08:30:20.454Z,11.53
2019-05-11T08:32:50.713Z,10.47
2019-05-11T08:35:21.052Z,9.27
2019-05-11T08:37:51.309Z,10.33
2019-05-11T08:40:21.668Z,11.07
2019-05-11T08:42:51.919Z,10.43
2019-05-11T08:45:24.710Z,9.57
2019-05-11T08:47:54.276Z,9.70
2019-05-11T08:50:24.528Z,10.07
2019-05-11T08:52:58.121Z,9.40
2019-05-11T08:55:29.102Z,9.07
2019-05-11T08:57:59.871Z,10.63
2019-05-11T09:00:30.361Z,5.87
2019-05-11T09:03:00.605Z,7.07
2019-05-11T09:05:30.942Z,6.20
2019-05-11T09:08:01.212Z,5.40
2019-05-11T09:10:31.590Z,6.53
2019-05-11T09:13:01.814Z,5.50
2019-05-11T09:15:37.109Z,4.40
2019-05-11T09:18:04.332Z,5.17
2019-05-11T09:20:34.666Z,6.03
2019-05-11T09:23:04.974Z,8.40
2019-05-11T09:25:35.215Z,7.60
2019-05-11T09:28:05.567Z,6.93
2019-05-11T09:30:37.731Z,9.10
2019-05-11T09:33:08.625Z,7.00
2019-05-11T09:35:49.739Z,7.93
2019-05-11T09:38:12.725Z,7.77
2019-05-11T09:40:43.001Z,8.73
2019-05-11T09:43:13.403Z,8.70
2019-05-11T09:45:48.469Z,9.90
2019-05-11T09:48:17.819Z,8.37
2019-05-11T09:50:48.119Z,8.00
2019-05-11T09:53:18.660Z,8.23
2019-05-11T09:55:49.363Z,7.73
2019-05-11T09:58:21.230Z,7.70
2019-05-11T10:00:51.535Z,9.10
2019-05-11T10:03:21.786Z,8.47
2019-05-11T10:05:52.462Z,7.83
2019-05-11T10:08:22.881Z,7.90
2019-05-11T10:10:53.498Z,7.77
2019-05-11T10:13:23.944Z,12.27
2019-05-11T10:16:04.406Z,9.93
2019-05-11T10:18:28.196Z,9.13
2019-05-11T10:20:58.813Z,12.97
2019-05-11T10:23:29.212Z,8.90
2019-05-11T10:25:59.592Z,9.00
2019-05-11T10:28:30.894Z,10.03
2019-05-11T10:31:01.336Z,9.07
2019-05-11T10:33:31.580Z,8.20
2019-05-11T10:36:03.268Z,9.20
2019-05-11T10:38:33.659Z,10.93
2019-05-11T10:41:03.953Z,8.40
2019-05-11T10:43:34.345Z,10.10
2019-05-11T10:46:16.971Z,10.27
2019-05-11T10:48:38.852Z,11.20
2019-05-11T10:51:09.408Z,9.00
2019-05-11T10:53:39.763Z,9.20
2019-05-11T10:56:10.220Z,10.03
2019-05-11T10:58:40.657Z,10.37
2019-05-11T11:01:11.407Z,13.00
2019-05-11T11:03:41.771Z,13.70
2019-05-11T11:06:12.365Z,13.97
2019-05-11T11:08:42.811Z,14.80
2019-05-11T11:11:13.521Z,18.43
2019-05-11T11:13:43.931Z,18.50
2019-05-11T11:16:14.723Z,18.30
2019-05-11T11:18:45.076Z,20.50
2019-05-11T11:21:19.269Z,22.37
2019-05-11T11:23:48.112Z,20.50
2019-05-11T11:26:20.253Z,20.57
2019-05-11T11:28:50.569Z,22.63
2019-05-11T11:31:20.951Z,24.70
2019-05-11T11:33:55.536Z,26.10
2019-05-11T11:36:24.988Z,28.27
2019-05-11T11:38:55.342Z,28.00
2019-05-11T11:41:25.747Z,27.77
2019-05-11T11:43:55.979Z,29.77
2019-05-11T11:46:27.770Z,34.40
2019-05-11T11:49:00.005Z,37.23
2019-05-11T11:51:30.298Z,37.77
2019-05-11T11:54:02.370Z,42.63
2019-05-11T11:56:33.918Z,41.10
2019-05-11T11:59:04.424Z,41.80
2019-05-11T12:01:34.862Z,43.00
2019-05-11T12:04:05.380Z,46.47
2019-05-11T12:06:35.679Z,46.73
2019-05-11T12:09:08.762Z,46.57
2019-05-11T12:11:39.515Z,46.03
2019-05-11T12:14:09.782Z,48.47
2019-05-11T12:16:40.247Z,45.67
2019-05-11T12:19:10.647Z,44.67
2019-05-11T12:21:40.923Z,45.57
2019-05-11T12:24:11.234Z,39.23
2019-05-11T12:26:41.517Z,34.67
2019-05-11T12:29:11.996Z,32.13
2019-05-11T12:31:42.403Z,31.53
2019-05-11T12:34:12.718Z,30.57
2019-05-11T12:36:43.001Z,29.97
2019-05-11T12:39:13.316Z,28.70
2019-05-11T12:41:43.660Z,26.13
2019-05-11T12:44:14.126Z,25.47
2019-05-11T12:46:44.520Z,25.57
2019-05-11T12:49:14.863Z,24.30
2019-05-11T12:51:45.154Z,21.33
2019-05-11T12:54:15.569Z,17.43
2019-05-11T12:56:45.912Z,17.50
2019-05-11T12:59:18.543Z,17.57
2019-05-11T13:01:48.648Z,16.47
2019-05-11T13:04:19.175Z,15.20
2019-05-11T13:06:49.444Z,16.23
2019-05-11T13:09:19.775Z,15.70
2019-05-11T13:11:50.148Z,17.30
2019-05-11T13:14:20.442Z,15.63
2019-05-11T13:16:51.683Z,15.63
2019-05-11T13:19:23.656Z,14.33
2019-05-11T13:21:53.918Z,16.77
2019-05-11T13:24:24.272Z,15.47
2019-05-11T13:26:55.322Z,15.33
2019-05-11T13:29:25.638Z,15.97
2019-05-11T13:31:55.936Z,15.33
2019-05-11T13:34:31.048Z,14.77
2019-05-11T13:36:58.400Z,14.80
2019-05-11T13:39:28.743Z,12.77
2019-05-11T13:41:59.053Z,13.80
2019-05-11T13:44:30.068Z,9.63
2019-05-11T13:47:00.372Z,8.63
2019-05-11T13:49:32.435Z,8.97
2019-05-11T13:52:04.142Z,8.20
2019-05-11T13:54:34.446Z,8.83
2019-05-11T13:57:04.841Z,7.87
2019-05-11T13:59:35.146Z,9.73
2019-05-11T14:02:08.144Z,8.13
2019-05-11T14:04:38.695Z,10.73
2019-05-11T14:07:09.395Z,11.83
2019-05-11T14:09:42.362Z,14.37
2019-05-11T14:12:18.123Z,12.57
2019-05-11T14:14:48.215Z,14.40
2019-05-11T14:17:18.775Z,16.97
2019-05-11T14:19:49.538Z,15.63
2019-05-11T14:22:20.067Z,15.27
2019-05-11T14:24:51.359Z,15.40
2019-05-11T14:27:23.345Z,16.47
2019-05-11T14:29:53.683Z,18.10
2019-05-11T14:32:24.155Z,18.33
2019-05-11T14:34:54.532Z,18.67
2019-05-11T14:37:24.858Z,18.47
2019-05-11T14:39:55.378Z,18.27
2019-05-11T14:42:25.868Z,18.17
2019-05-11T14:44:58.776Z,18.10
2019-05-11T14:47:28.425Z,19.23
2019-05-11T14:49:58.757Z,18.17
2019-05-11T14:52:30.731Z,17.73
2019-05-11T14:55:00.983Z,18.93
2019-05-11T14:57:31.247Z,20.17
2019-05-11T15:00:01.725Z,18.53
2019-05-11T15:02:48.612Z,18.63
2019-05-11T15:05:19.908Z,17.60
2019-05-11T15:07:52.425Z,18.67
2019-05-11T15:10:22.574Z,16.80
2019-05-11T15:12:52.990Z,16.40
2019-05-11T15:15:23.890Z,15.13
2019-05-11T15:17:57.926Z,13.87
2019-05-11T15:20:28.598Z,12.20
2019-05-11T15:22:59.144Z,13.83
2019-05-11T15:25:29.642Z,13.97
2019-05-11T15:28:01.523Z,9.47
2019-05-11T15:30:31.863Z,10.27
2019-05-11T15:33:02.211Z,8.03
2019-05-11T15:35:32.507Z,9.70
2019-05-11T15:38:02.840Z,7.97
2019-05-11T15:40:33.150Z,7.17
2019-05-11T15:43:03.504Z,8.20
2019-05-11T15:45:33.867Z,7.73
2019-05-11T15:48:04.199Z,9.70
2019-05-11T15:50:34.591Z,9.13
2019-05-11T15:53:05.081Z,8.10
2019-05-11T15:55:35.424Z,9.27
2019-05-11T15:58:05.815Z,6.43
2019-05-11T16:00:39.741Z,7.63
2019-05-11T16:03:08.439Z,8.83
2019-05-11T16:05:38.916Z,8.73
2019-05-11T16:08:09.437Z,7.13
2019-05-11T16:10:39.766Z,6.33
2019-05-11T16:13:10.010Z,7.90
2019-05-11T16:15:40.306Z,7.20
2019-05-11T16:18:10.678Z,8.40
2019-05-11T16:20:41.026Z,8.97
2019-05-11T16:23:11.349Z,7.93
2019-05-11T16:25:41.759Z,7.63
2019-05-11T16:28:12.095Z,9.13
2019-05-11T16:30:42.476Z,6.20
2019-05-11T16:33:12.983Z,6.10
2019-05-11T16:35:43.248Z,8.90
2019-05-11T16:38:13.709Z,10.17
2019-05-11T16:40:43.963Z,5.33
2019-05-11T16:43:14.420Z,7.33
2019-05-11T16:45:44.791Z,8.43
2019-05-11T16:48:15.092Z,9.50
2019-05-11T16:50:45.399Z,8.57
2019-05-11T16:53:17.937Z,8.00
2019-05-11T16:55:48.606Z,7.83
2019-05-11T16:58:20.000Z,7.07
2019-05-11T17:00:50.602Z,7.33
2019-05-11T17:03:21.230Z,8.57
2019-05-11T17:05:51.504Z,7.93
2019-05-11T17:08:22.044Z,7.57
2019-05-11T17:10:59.083Z,7.67
2019-05-11T17:13:29.895Z,8.70
2019-05-11T17:16:01.833Z,7.87
2019-05-11T17:18:32.212Z,8.53
2019-05-11T17:21:02.578Z,11.47
2019-05-11T17:23:33.015Z,9.87
2019-05-11T17:26:03.292Z,8.00
2019-05-11T17:28:33.621Z,6.40
2019-05-11T17:31:04.390Z,7.23
2019-05-11T17:33:34.635Z,6.80
2019-05-11T17:36:08.446Z,7.67
2019-05-11T17:38:39.142Z,8.23
2019-05-11T17:41:09.619Z,7.77
2019-05-11T17:43:39.977Z,9.10
2019-05-11T17:46:10.282Z,9.13
2019-05-11T17:48:41.630Z,9.13
2019-05-11T17:51:21.280Z,7.87
2019-05-11T17:53:44.736Z,11.87
2019-05-11T17:56:15.081Z,10.60
2019-05-11T17:58:48.195Z,9.67
2019-05-11T18:01:18.678Z,11.53
2019-05-11T18:03:49.313Z,10.23
2019-05-11T18:06:19.687Z,10.73
2019-05-11T18:08:50.021Z,10.70
2019-05-11T18:11:20.359Z,8.73
2019-05-11T18:13:50.630Z,9.40
2019-05-11T18:16:20.928Z,10.63
2019-05-11T18:18:51.212Z,9.33
2019-05-11T18:21:21.574Z,9.23
2019-05-11T18:23:51.865Z,8.33
2019-05-11T18:26:22.243Z,11.37
2019-05-11T18:28:52.490Z,10.80
2019-05-11T18:31:22.808Z,10.57
2019-05-11T18:33:53.132Z,8.37
2019-05-11T18:36:25.150Z,10.77
2019-05-11T18:38:55.402Z,10.70
2019-05-11T18:41:28.137Z,13.47
2019-05-11T18:43:58.563Z,13.47
2019-05-11T18:46:29.386Z,11.00
2019-05-11T18:48:59.731Z,12.30
2019-05-11T18:51:30.133Z,7.77
2019-05-11T18:54:00.408Z,9.37
2019-05-11T18:56:32.063Z,11.63
2019-05-11T18:59:02.460Z,8.57
2019-05-11T19:01:33.099Z,10.83
2019-05-11T19:04:07.756Z,9.53
2019-05-11T19:06:38.047Z,9.30
2019-05-11T19:09:08.581Z,13.23
2019-05-11T19:11:42.836Z,10.30
2019-05-11T19:14:12.919Z,12.63
2019-05-11T19:16:43.256Z,9.37
2019-05-11T19:19:13.665Z,11.00
2019-05-11T19:21:44.178Z,20.83
2019-05-11T19:24:14.684Z,21.93
2019-05-11T19:26:44.948Z,21.30
2019-05-11T19:29:17.940Z,19.13
2019-05-11T19:31:49.927Z,17.97
2019-05-11T19:34:22.229Z,16.00
2019-05-11T19:36:52.590Z,21.63
2019-05-11T19:39:25.051Z,18.77
2019-05-11T19:41:55.261Z,19.60
2019-05-11T19:44:27.947Z,18.70
2019-05-11T19:47:00.261Z,17.47
2019-05-11T19:49:32.094Z,17.37
2019-05-11T19:52:02.524Z,14.30
2019-05-11T19:54:33.075Z,15.40
2019-05-11T19:57:03.529Z,13.33
2019-05-11T19:59:34.071Z,13.37
2019-05-11T20:02:04.628Z,12.77
2019-05-11T20:04:35.403Z,14.23
2019-05-11T20:07:08.768Z,16.27
2019-05-11T20:09:42.872Z,13.43
2019-05-11T20:12:13.143Z,13.17
2019-05-11T20:14:43.488Z,13.60
2019-05-11T20:17:15.431Z,14.77
2019-05-11T20:19:45.863Z,13.90
2019-05-11T20:22:16.184Z,12.30
2019-05-11T20:24:47.635Z,14.03
2019-05-11T20:27:18.570Z,13.20
2019-05-11T20:29:49.172Z,14.93
2019-05-11T20:32:19.523Z,18.47
2019-05-11T20:34:49.908Z,31.47
2019-05-11T20:37:20.259Z,19.53
2019-05-11T20:39:50.566Z,17.83
2019-05-11T20:42:23.377Z,15.77
2019-05-11T20:44:53.951Z,12.97
2019-05-11T20:47:26.011Z,14.03
2019-05-11T20:49:58.595Z,11.67
2019-05-11T20:52:28.523Z,11.10
2019-05-11T20:54:59.000Z,12.10
2019-05-11T20:57:29.542Z,10.37
2019-05-11T21:00:00.788Z,7.57
2019-05-11T21:02:31.295Z,11.03
2019-05-11T21:05:01.670Z,8.97
2019-05-11T21:07:32.142Z,7.93
2019-05-11T21:10:02.427Z,9.03
2019-05-11T21:12:33.867Z,8.23
2019-05-11T21:15:04.650Z,6.67
2019-05-11T21:17:34.997Z,8.73
2019-05-11T21:20:06.443Z,8.83
2019-05-11T21:22:40.166Z,7.40
2019-05-11T21:25:09.393Z,6.60
2019-05-11T21:27:40.143Z,10.47
2019-05-11T21:30:11.447Z,10.03
2019-05-11T21:32:41.873Z,9.00
2019-05-11T21:35:12.813Z,8.87
2019-05-11T21:37:44.463Z,6.13
2019-05-11T21:40:16.326Z,8.17
2019-05-11T21:42:47.648Z,6.97
2019-05-11T21:45:18.448Z,6.37
2019-05-11T21:47:49.266Z,6.33
2019-05-11T21:50:20.696Z,10.67
2019-05-11T21:52:54.200Z,7.73
2019-05-11T21:55:29.242Z,6.87
2019-05-11T21:58:00.296Z,5.60
2019-05-11T22:00:49.917Z,8.63
2019-05-11T22:03:21.955Z,4.57
2019-05-11T22:05:53.320Z,5.87
2019-05-11T22:08:23.648Z,7.00
2019-05-11T22:10:55.489Z,8.70
2019-05-11T22:13:25.891Z,8.30
2019-05-11T22:15:58.042Z,4.07
2019-05-11T22:18:31.352Z,6.03
2019-05-11T22:21:01.467Z,7.10
2019-05-11T22:23:31.744Z,5.40
2019-05-11T22:26:02.083Z,6.77
2019-05-11T22:28:32.389Z,4.37
2019-05-11T22:31:04.239Z,5.40
2019-05-11T22:33:34.573Z,4.43
2019-05-11T22:36:04.836Z,6.83
2019-05-11T22:38:35.218Z,6.37
2019-05-11T22:41:05.429Z,5.30
2019-05-11T22:43:37.413Z,5.73
2019-05-11T22:46:10.473Z,6.90
2019-05-11T22:48:40.725Z,7.77
2019-05-11T22:51:11.094Z,8.07
2019-05-11T22:53:47.120Z,8.53
2019-05-11T22:56:13.742Z,11.13
2019-05-11T22:58:44.197Z,10.40
2019-05-11T23:01:14.707Z,8.97
2019-05-11T23:03:44.914Z,6.50
2019-05-11T23:06:15.350Z,4.70
2019-05-11T23:08:48.335Z,6.03
2019-05-11T23:11:18.043Z,6.90
2019-05-11T23:13:48.399Z,6.47
2019-05-11T23:16:18.684Z,8.70
2019-05-11T23:18:49.117Z,4.80
2019-05-11T23:21:19.550Z,6.77
2019-05-11T23:23:49.775Z,5.77
2019-05-11T23:26:20.099Z,7.33
2019-05-11T23:28:50.372Z,7.03
2019-05-11T23:31:20.607Z,7.17
2019-05-11T23:33:50.843Z,7.47
2019-05-11T23:36:21.291Z,7.17
2019-05-11T23:38:51.747Z,8.13
2019-05-11T23:41:24.667Z,8.53
2019-05-11T23:43:54.279Z,7.77
2019-05-11T23:46:24.671Z,6.43
2019-05-11T23:48:55.181Z,4.33
2019-05-11T23:51:25.534Z,5.20
2019-05-11T23:53:55.903Z,8.13
2019-05-11T23:56:28.171Z,4.07
2019-05-11T23:58:58.346Z,5.33
